Time;durP1;ratioP1;P1;durP2;ratioP2;P2;SDS_P1;SDS_P2;PMS_P1;PMS_P2;Temp;Humidity;BMP_temperature;BMP_pressure;BME280_temperature;BME280_humidity;BME280_pressure;Samples;Min_cycle;Max_cycle;Signal;HPM_P1;HPM_P2
2024/01/11 00:00:49;;;;;;;23.48;13.85;;;1.50;89.40;;;;;;5083998;28;20187;-29
2024/01/11 00:03:17;;;;;;;22.20;15.05;;;1.40;89.30;;;;;;5084049;28;20280;-31
2024/01/11 00:05:43;;;;;;;24.55;14.30;;;1.40;89.30;;;;;;5083878;28;20187;-31
2024/01/11 00:08:11;;;;;;;22.83;15.77;;;1.40;89.40;;;;;;5081740;28;20228;-31
2024/01/11 00:10:39;;;;;;;24.50;14.35;;;1.40;89.40;;;;;;5083293;28;20582;-28
2024/01/11 00:13:07;;;;;;;21.40;14.35;;;1.40;89.50;;;;;;5064974;28;20911;-32
2024/01/11 00:15:34;;;;;;;23.48;14.95;;;1.40;89.60;;;;;;5080655;28;20211;-29
2024/01/11 00:18:02;;;;;;;28.27;14.85;;;1.40;89.60;;;;;;5080342;28;20932;-29
2024/01/11 00:20:33;;;;;;;20.42;14.35;;;1.40;89.60;;;;;;5081412;28;20187;-29
2024/01/11 00:23:02;;;;;;;24.48;15.18;;;1.40;89.50;;;;;;5080453;28;20418;-28
2024/01/11 00:25:31;;;;;;;22.38;15.40;;;1.40;89.60;;;;;;5070968;28;20188;-35
2024/01/11 00:28:02;;;;;;;22.50;13.65;;;1.40;89.50;;;;;;5075186;28;20253;-30
2024/01/11 00:30:28;;;;;;;23.85;14.55;;;1.40;89.60;;;;;;5081304;28;20186;-28
2024/01/11 00:32:55;;;;;;;23.30;15.27;;;1.40;89.60;;;;;;5045545;28;20197;-32
2024/01/11 00:35:25;;;;;;;21.55;14.45;;;1.40;89.60;;;;;;5079041;28;20465;-33
2024/01/11 00:37:51;;;;;;;27.37;16.67;;;1.40;89.70;;;;;;5078721;28;20244;-32
2024/01/11 00:40:17;;;;;;;25.20;15.90;;;1.40;89.60;;;;;;5080352;28;20413;-28
2024/01/11 00:42:43;;;;;;;26.80;15.40;;;1.40;89.60;;;;;;5080550;28;20179;-29
2024/01/11 00:45:10;;;;;;;23.47;15.17;;;1.40;89.60;;;;;;5080224;28;20749;-28
2024/01/11 00:47:36;;;;;;;19.30;13.70;;;1.40;89.60;;;;;;5080164;28;21120;-29
2024/01/11 00:50:02;;;;;;;22.58;14.80;;;1.40;89.60;;;;;;5069909;28;20207;-31
2024/01/11 00:52:28;;;;;;;28.23;15.95;;;1.40;89.60;;;;;;5080414;28;20838;-31
2024/01/11 00:54:54;;;;;;;22.95;14.70;;;1.40;89.60;;;;;;5078408;28;20241;-29
2024/01/11 00:57:20;;;;;;;23.10;14.73;;;1.40;89.60;;;;;;5078660;28;20713;-30
2024/01/11 00:59:46;;;;;;;26.57;16.93;;;1.40;89.60;;;;;;5078014;28;20453;-29
2024/01/11 01:02:12;;;;;;;27.58;15.48;;;1.40;89.50;;;;;;5078499;28;20930;-31
2024/01/11 01:04:40;;;;;;;27.02;15.88;;;1.40;89.60;;;;;;5080403;28;20219;-31
2024/01/11 01:07:09;;;;;;;27.02;15.32;;;1.30;89.50;;;;;;5080361;28;20221;-32
2024/01/11 01:09:35;;;;;;;23.38;15.48;;;1.40;89.60;;;;;;5061173;28;20218;-30
2024/01/11 01:12:01;;;;;;;24.85;15.40;;;1.40;89.60;;;;;;5079484;28;20635;-30
2024/01/11 01:14:27;;;;;;;27.08;14.85;;;1.30;89.40;;;;;;5079933;28;20783;-35
2024/01/11 01:16:54;;;;;;;25.03;15.60;;;1.40;89.60;;;;;;5079366;28;20191;-32
2024/01/11 01:19:19;;;;;;;24.98;15.25;;;1.40;89.50;;;;;;5079311;28;20445;-31
2024/01/11 01:21:50;;;;;;;22.83;13.90;;;1.40;89.60;;;;;;5078824;28;20676;-32
2024/01/11 01:24:18;;;;;;;23.77;15.77;;;1.40;89.60;;;;;;5066934;28;20749;-29
2024/01/11 01:26:44;;;;;;;24.17;15.82;;;1.30;89.50;;;;;;5077105;28;20180;-29
2024/01/11 01:29:12;;;;;;;23.97;15.60;;;1.30;89.50;;;;;;5076872;28;20280;-30
2024/01/11 01:31:38;;;;;;;24.88;16.77;;;1.30;89.50;;;;;;5077492;28;20217;-29
2024/01/11 01:34:07;;;;;;;28.52;16.05;;;1.30;89.50;;;;;;5080544;28;20194;-29
2024/01/11 01:36:33;;;;;;;30.92;16.25;;;1.30;89.40;;;;;;5064270;28;20629;-29
2024/01/11 01:38:59;;;;;;;26.77;15.55;;;1.30;89.50;;;;;;5076814;28;20256;-30
2024/01/11 01:41:25;;;;;;;25.98;15.70;;;1.30;89.40;;;;;;5082813;28;20187;-33
2024/01/11 01:43:54;;;;;;;20.30;14.33;;;1.30;89.40;;;;;;5082623;28;20191;-28
2024/01/11 01:49:13;;;;;;;26.20;15.88;;;1.30;89.50;;;;;;5038117;28;20263;-26
2024/01/11 01:51:42;;;;;;;26.55;16.65;;;1.30;89.50;;;;;;5040782;28;20184;-27
2024/01/11 01:54:10;;;;;;;27.95;15.50;;;1.30;89.50;;;;;;5041213;28;20211;-28
2024/01/11 01:56:40;;;;;;;25.33;14.38;;;1.30;89.40;;;;;;5039741;28;20746;-28
2024/01/11 01:59:06;;;;;;;24.50;15.93;;;1.30;89.30;;;;;;5041177;28;20742;-28
2024/01/11 02:01:34;;;;;;;28.15;16.17;;;1.30;89.40;;;;;;5047772;28;20180;-26
2024/01/11 02:04:05;;;;;;;29.15;16.30;;;1.30;89.40;;;;;;5040316;28;20232;-26
2024/01/11 02:06:36;;;;;;;25.75;16.20;;;1.30;89.40;;;;;;5049140;28;20980;-27
2024/01/11 02:09:05;;;;;;;27.27;15.82;;;1.30;89.40;;;;;;5040932;28;20298;-27
2024/01/11 02:11:34;;;;;;;24.73;15.80;;;1.30;89.40;;;;;;5039198;28;20188;-28
2024/01/11 02:14:00;;;;;;;25.65;15.73;;;1.30;89.50;;;;;;5040925;28;20188;-27
2024/01/11 02:16:26;;;;;;;28.05;16.23;;;1.30;89.50;;;;;;5039688;28;20211;-26
2024/01/11 02:18:52;;;;;;;30.77;17.27;;;1.20;89.50;;;;;;5040791;28;20215;-27
2024/01/11 02:21:22;;;;;;;25.33;16.10;;;1.30;89.50;;;;;;5039441;28;20215;-27
2024/01/11 02:24:04;;;;;;;26.42;16.80;;;1.20;89.40;;;;;;5041168;28;20181;-26
2024/01/11 02:26:34;;;;;;;27.15;17.08;;;1.20;89.30;;;;;;5036621;28;20196;-27
2024/01/11 02:29:00;;;;;;;27.13;16.80;;;1.20;89.40;;;;;;5040670;28;20209;-26
2024/01/11 02:31:26;;;;;;;24.55;15.45;;;1.20;89.50;;;;;;5040967;28;20189;-26
2024/01/11 02:33:56;;;;;;;25.80;15.90;;;1.20;89.40;;;;;;5040633;28;20496;-26
2024/01/11 02:36:25;;;;;;;26.67;16.20;;;1.20;89.40;;;;;;5040589;28;20683;-27
2024/01/11 02:38:55;;;;;;;28.63;15.65;;;1.20;89.40;;;;;;5041401;28;20590;-27
2024/01/11 02:41:22;;;;;;;29.15;16.77;;;1.20;89.50;;;;;;5038703;28;20209;-27
2024/01/11 02:43:48;;;;;;;22.55;15.52;;;1.20;89.40;;;;;;5044497;28;20181;-26
2024/01/11 02:46:19;;;;;;;22.52;15.35;;;1.20;89.50;;;;;;5039445;28;20185;-27
2024/01/11 02:48:48;;;;;;;24.42;16.15;;;1.20;89.50;;;;;;5036883;28;20227;-27
2024/01/11 02:51:16;;;;;;;26.67;16.35;;;1.20;89.50;;;;;;5039837;28;20195;-27
2024/01/11 02:53:42;;;;;;;26.03;16.57;;;1.20;89.50;;;;;;5039449;28;20602;-27
2024/01/11 02:56:08;;;;;;;30.40;16.40;;;1.20;89.50;;;;;;5035842;28;20470;-26
2024/01/11 02:58:36;;;;;;;30.10;16.77;;;1.20;89.40;;;;;;5039969;28;20833;-27
2024/01/11 03:01:05;;;;;;;25.63;14.98;;;1.20;89.40;;;;;;5039571;28;20209;-26
2024/01/11 03:03:31;;;;;;;29.70;16.85;;;1.20;89.40;;;;;;5038309;28;20205;-27
2024/01/11 03:06:00;;;;;;;28.83;16.60;;;1.20;89.40;;;;;;5039915;28;20200;-26
2024/01/11 03:08:26;;;;;;;25.25;16.42;;;1.20;89.40;;;;;;5039159;28;20211;-26
2024/01/11 03:10:53;;;;;;;25.70;16.85;;;1.20;89.50;;;;;;5038885;28;20944;-26
2024/01/11 03:13:19;;;;;;;30.70;16.75;;;1.20;89.50;;;;;;5039265;28;20196;-27
2024/01/11 03:15:49;;;;;;;26.23;18.05;;;1.20;89.40;;;;;;5039636;28;20228;-27
2024/01/11 03:18:18;;;;;;;30.67;18.45;;;1.20;89.50;;;;;;5039550;28;20695;-27
2024/01/11 03:20:44;;;;;;;24.73;16.10;;;1.10;89.40;;;;;;5039321;28;20188;-27
2024/01/11 03:23:10;;;;;;;24.75;16.95;;;1.10;89.40;;;;;;5039154;28;20438;-26
2024/01/11 03:25:36;;;;;;;26.97;17.73;;;1.10;89.30;;;;;;5038718;28;20867;-27
2024/01/11 03:28:03;;;;;;;26.92;16.65;;;1.10;89.30;;;;;;5038934;28;20455;-27
2024/01/11 03:30:30;;;;;;;28.33;17.33;;;1.10;89.40;;;;;;5039458;28;20220;-26
2024/01/11 03:32:58;;;;;;;29.98;17.90;;;1.10;89.30;;;;;;5046261;28;20654;-28
2024/01/11 03:35:24;;;;;;;32.15;18.02;;;1.20;89.50;;;;;;5038205;28;20250;-26
2024/01/11 03:37:51;;;;;;;30.43;17.67;;;1.20;89.40;;;;;;5039187;28;20188;-26
2024/01/11 03:40:17;;;;;;;24.45;15.75;;;1.10;89.50;;;;;;5039799;28;21121;-28
2024/01/11 03:42:43;;;;;;;28.67;17.48;;;1.10;89.50;;;;;;5040147;28;20211;-28
2024/01/11 03:45:12;;;;;;;28.15;18.45;;;1.10;89.50;;;;;;5022060;28;20279;-29
2024/01/11 03:47:38;;;;;;;27.63;17.45;;;1.10;89.50;;;;;;5037856;28;20295;-27
2024/01/11 03:50:06;;;;;;;24.70;16.38;;;1.10;89.60;;;;;;5039230;28;20822;-28
2024/01/11 03:52:35;;;;;;;26.58;17.98;;;1.10;89.50;;;;;;5039650;28;20215;-26
2024/01/11 03:55:07;;;;;;;31.00;18.35;;;1.10;89.50;;;;;;5037930;28;20306;-27
2024/01/11 03:57:36;;;;;;;31.90;18.95;;;1.10;89.50;;;;;;5037141;28;20253;-27
2024/01/11 04:00:02;;;;;;;27.98;17.20;;;1.10;89.50;;;;;;5038111;28;20781;-28
2024/01/11 04:02:32;;;;;;;28.77;17.15;;;1.10;89.50;;;;;;5039461;28;20191;-27
2024/01/11 04:04:58;;;;;;;28.20;17.45;;;1.10;89.50;;;;;;5038887;28;20266;-26
2024/01/11 04:07:26;;;;;;;28.02;17.83;;;1.10;89.60;;;;;;5037615;28;20757;-27
2024/01/11 04:09:52;;;;;;;28.13;17.80;;;1.10;89.50;;;;;;5037658;28;20208;-27
2024/01/11 04:12:18;;;;;;;29.40;17.40;;;1.10;89.50;;;;;;5039042;28;20189;-26
2024/01/11 04:14:44;;;;;;;29.27;18.77;;;1.10;89.50;;;;;;5038914;28;20554;-27
2024/01/11 04:17:14;;;;;;;29.98;19.08;;;1.10;89.50;;;;;;5039148;28;20191;-26
2024/01/11 04:19:43;;;;;;;31.80;16.58;;;1.10;89.50;;;;;;5038999;28;20968;-27
2024/01/11 04:22:11;;;;;;;26.23;17.50;;;1.10;89.40;;;;;;5039144;28;20207;-26
2024/01/11 04:24:39;;;;;;;30.07;18.80;;;1.00;89.40;;;;;;5037371;28;20192;-27
2024/01/11 04:27:05;;;;;;;31.05;18.20;;;1.10;89.50;;;;;;5038898;28;20443;-27
2024/01/11 04:29:32;;;;;;;31.00;19.95;;;1.00;89.40;;;;;;5037137;28;20239;-28
2024/01/11 04:31:58;;;;;;;30.23;17.67;;;1.10;89.40;;;;;;5037251;28;20212;-27
2024/01/11 04:34:24;;;;;;;26.10;17.85;;;1.10;89.40;;;;;;5037388;28;20477;-27
2024/01/11 04:36:50;;;;;;;31.25;18.88;;;1.10;89.40;;;;;;5039602;28;20295;-27
2024/01/11 04:39:19;;;;;;;31.13;18.93;;;1.00;89.30;;;;;;5039253;28;20203;-27
2024/01/11 04:41:47;;;;;;;32.55;19.98;;;1.00;89.20;;;;;;5028932;28;21177;-27
2024/01/11 04:44:16;;;;;;;30.38;18.80;;;1.00;89.20;;;;;;5038114;28;20190;-27
2024/01/11 04:46:43;;;;;;;31.23;18.73;;;1.00;89.30;;;;;;5037862;28;20507;-27
2024/01/11 04:49:09;;;;;;;33.75;20.13;;;1.00;89.40;;;;;;5034506;28;20207;-28
2024/01/11 04:51:35;;;;;;;28.10;18.10;;;1.00;89.40;;;;;;5020942;28;20830;-27
2024/01/11 04:54:01;;;;;;;31.83;18.50;;;1.00;89.40;;;;;;5038591;28;21182;-26
2024/01/11 04:56:29;;;;;;;30.47;19.80;;;1.00;89.40;;;;;;5037324;28;20196;-27
2024/01/11 04:58:55;;;;;;;28.73;19.73;;;1.00;89.40;;;;;;5049044;28;20995;-27
2024/01/11 05:01:28;;;;;;;27.95;18.55;;;1.00;89.30;;;;;;5038839;28;20204;-27
2024/01/11 05:03:56;;;;;;;34.20;20.70;;;1.00;89.30;;;;;;5037844;28;20204;-27
2024/01/11 05:06:23;;;;;;;32.85;19.10;;;1.00;89.30;;;;;;5037128;28;20203;-26
2024/01/11 05:08:52;;;;;;;29.85;19.08;;;1.00;89.40;;;;;;5055176;28;20608;-27
2024/01/11 05:11:19;;;;;;;31.40;19.98;;;1.00;89.40;;;;;;5041182;28;20237;-28
2024/01/11 05:13:48;;;;;;;32.15;19.00;;;1.00;89.30;;;;;;5041000;28;20691;-26
2024/01/11 05:16:25;;;;;;;32.45;19.45;;;1.00;89.30;;;;;;5042913;28;20649;-28
2024/01/11 05:18:52;;;;;;;31.10;18.25;;;1.00;89.40;;;;;;5042127;28;20858;-28
2024/01/11 05:21:22;;;;;;;30.33;19.55;;;1.00;89.40;;;;;;5043083;28;20185;-28
2024/01/11 05:23:52;;;;;;;35.92;19.65;;;0.90;89.30;;;;;;5043564;28;20212;-28
2024/01/11 05:26:19;;;;;;;30.70;18.63;;;0.90;89.20;;;;;;5043450;28;20192;-28
2024/01/11 05:28:45;;;;;;;32.78;20.50;;;0.90;89.30;;;;;;5041142;28;20204;-27
2024/01/11 05:31:16;;;;;;;35.30;19.17;;;0.90;89.30;;;;;;5048099;28;20617;-28
2024/01/11 05:33:43;;;;;;;34.45;19.45;;;0.90;89.30;;;;;;5040101;28;21040;-28
2024/01/11 05:36:09;;;;;;;36.40;20.42;;;0.90;89.30;;;;;;5042079;28;20234;-26
2024/01/11 05:38:38;;;;;;;31.00;20.27;;;0.90;89.30;;;;;;5028372;28;20233;-27
2024/01/11 05:41:04;;;;;;;30.17;19.58;;;1.00;89.40;;;;;;5042543;28;20912;-27
2024/01/11 05:43:32;;;;;;;31.45;20.02;;;0.90;89.30;;;;;;5042640;28;20185;-26
2024/01/11 05:46:01;;;;;;;33.67;20.33;;;0.90;89.20;;;;;;5041850;28;20803;-26
2024/01/11 05:48:27;;;;;;;28.88;17.73;;;0.90;89.30;;;;;;5041016;28;20255;-27
2024/01/11 05:50:56;;;;;;;31.25;18.75;;;0.90;89.30;;;;;;5040303;28;20219;-27
2024/01/11 05:53:22;;;;;;;37.50;19.05;;;0.90;89.30;;;;;;5041548;28;20985;-27
2024/01/11 05:55:48;;;;;;;31.55;20.08;;;0.90;89.30;;;;;;5046893;28;20273;-28
2024/01/11 05:58:14;;;;;;;34.58;20.25;;;0.90;89.30;;;;;;5020484;28;20205;-27
2024/01/11 06:00:43;;;;;;;30.45;20.35;;;0.90;89.30;;;;;;5040684;28;20210;-27
2024/01/11 06:03:12;;;;;;;32.15;20.33;;;0.90;89.30;;;;;;5030950;28;20811;-27
2024/01/11 06:05:41;;;;;;;31.75;17.85;;;0.90;89.30;;;;;;5041274;28;20200;-26
2024/01/11 06:08:07;;;;;;;33.80;19.40;;;0.90;89.30;;;;;;5039930;28;21027;-28
2024/01/11 06:10:34;;;;;;;32.50;19.50;;;0.90;89.30;;;;;;5041756;28;20306;-27
2024/01/11 06:13:00;;;;;;;32.97;19.95;;;0.90;89.30;;;;;;5039708;28;20473;-26
2024/01/11 06:15:26;;;;;;;34.03;20.52;;;0.90;89.30;;;;;;5022901;28;20217;-28
2024/01/11 06:17:54;;;;;;;33.05;20.08;;;0.90;89.20;;;;;;5040697;28;20627;-26
2024/01/11 06:20:20;;;;;;;32.75;19.48;;;0.90;89.30;;;;;;5040617;28;20204;-27
2024/01/11 06:22:48;;;;;;;25.73;18.90;;;0.90;89.30;;;;;;5048614;28;20180;-37
2024/01/11 06:25:15;;;;;;;34.20;19.00;;;0.90;89.30;;;;;;5039139;28;20204;-26
2024/01/11 06:27:49;;;;;;;31.25;18.92;;;0.90;89.20;;;;;;5045929;28;20220;-27
2024/01/11 06:30:15;;;;;;;33.50;20.15;;;0.90;89.20;;;;;;5040600;28;20214;-27
2024/01/11 06:32:43;;;;;;;31.47;19.53;;;0.90;89.20;;;;;;5039222;28;20204;-26
2024/01/11 06:35:12;;;;;;;34.65;21.23;;;0.80;89.20;;;;;;5035646;28;20470;-27
2024/01/11 06:37:38;;;;;;;32.20;19.77;;;0.80;89.10;;;;;;5040389;28;20195;-27
2024/01/11 06:40:04;;;;;;;34.40;19.58;;;0.90;89.20;;;;;;5038692;28;20469;-26
2024/01/11 06:42:33;;;;;;;32.28;21.40;;;0.80;89.20;;;;;;5040487;28;20999;-27
2024/01/11 06:44:59;;;;;;;34.40;20.52;;;0.90;89.20;;;;;;5024310;28;20224;-27
2024/01/11 06:47:28;;;;;;;29.17;17.95;;;0.80;89.00;;;;;;5040442;28;20720;-27
2024/01/11 06:49:54;;;;;;;33.30;20.27;;;0.80;89.10;;;;;;5039974;28;20287;-27
2024/01/11 06:52:20;;;;;;;33.42;20.25;;;0.80;89.10;;;;;;5040526;28;20207;-27
2024/01/11 06:54:46;;;;;;;35.07;23.30;;;0.80;89.10;;;;;;5039967;28;20204;-28
2024/01/11 06:57:12;;;;;;;37.42;22.08;;;0.80;89.10;;;;;;5035105;28;20423;-27
2024/01/11 06:59:38;;;;;;;38.23;22.87;;;0.80;89.10;;;;;;5038687;28;20211;-27
2024/01/11 07:02:04;;;;;;;36.70;21.13;;;0.80;89.10;;;;;;5038097;28;20431;-26
2024/01/11 07:04:30;;;;;;;35.33;22.07;;;0.80;89.00;;;;;;5021999;28;20269;-26
2024/01/11 07:06:56;;;;;;;35.47;20.63;;;0.80;89.10;;;;;;5040257;28;20461;-27
2024/01/11 07:09:25;;;;;;;34.92;20.67;;;0.80;89.10;;;;;;5039955;28;20204;-27
2024/01/11 07:11:51;;;;;;;34.53;20.83;;;0.80;89.10;;;;;;5038822;28;20192;-26
2024/01/11 07:14:17;;;;;;;32.13;19.80;;;0.80;89.10;;;;;;5037036;28;20285;-27
2024/01/11 07:16:43;;;;;;;33.25;21.98;;;0.80;89.10;;;;;;5039549;28;20423;-27
2024/01/11 07:19:09;;;;;;;37.70;20.40;;;0.80;89.10;;;;;;5034325;28;20212;-26
2024/01/11 07:21:37;;;;;;;34.25;21.67;;;0.80;89.10;;;;;;5039112;28;20450;-26
2024/01/11 07:24:03;;;;;;;34.35;21.13;;;0.80;89.00;;;;;;5037972;28;20246;-27
2024/01/11 07:26:29;;;;;;;32.40;20.63;;;0.80;89.00;;;;;;5038669;28;20205;-26
2024/01/11 07:28:55;;;;;;;36.53;20.15;;;0.80;89.00;;;;;;5038813;28;20224;-27
2024/01/11 07:31:25;;;;;;;33.70;20.40;;;0.80;89.70;;;;;;5037006;28;20234;-26
2024/01/11 07:33:51;;;;;;;31.50;19.48;;;0.80;89.00;;;;;;5019006;28;20500;-26
2024/01/11 07:36:17;;;;;;;37.22;20.58;;;0.80;89.00;;;;;;5037449;28;20204;-26
2024/01/11 07:38:48;;;;;;;37.20;20.40;;;0.70;88.80;;;;;;5036215;28;20236;-27
2024/01/11 07:41:15;;;;;;;32.95;21.13;;;0.70;88.90;;;;;;5038008;28;20216;-26
2024/01/11 07:43:40;;;;;;;39.47;22.52;;;0.70;88.90;;;;;;5036859;28;20258;-26
2024/01/11 07:46:07;;;;;;;35.40;20.90;;;0.70;88.90;;;;;;5036424;28;20188;-26
2024/01/11 07:48:33;;;;;;;28.42;18.30;;;0.70;88.90;;;;;;5038865;28;21271;-27
2024/01/11 07:50:59;;;;;;;33.92;21.55;;;0.70;88.90;;;;;;5036617;28;20588;-26
2024/01/11 07:53:26;;;;;;;36.60;21.05;;;0.70;88.80;;;;;;5038090;28;20188;-26
2024/01/11 07:55:52;;;;;;;31.38;19.65;;;0.70;88.80;;;;;;5037912;28;20239;-27
2024/01/11 07:58:20;;;;;;;30.40;19.60;;;0.70;88.90;;;;;;5035603;28;20205;-27
2024/01/11 08:00:49;;;;;;;33.83;20.52;;;0.70;88.90;;;;;;5036003;28;20179;-26
2024/01/11 08:03:15;;;;;;;33.03;20.48;;;0.70;89.00;;;;;;5037578;28;20197;-26
2024/01/11 08:05:43;;;;;;;38.35;21.80;;;0.70;88.90;;;;;;5037616;28;20200;-26
2024/01/11 08:08:09;;;;;;;32.63;19.75;;;0.70;89.00;;;;;;5031137;28;20591;-26
2024/01/11 08:10:35;;;;;;;34.30;20.55;;;0.70;89.00;;;;;;5036148;28;20305;-26
2024/01/11 08:13:03;;;;;;;34.65;19.30;;;0.70;89.00;;;;;;5037217;28;20213;-26
2024/01/11 08:15:29;;;;;;;32.10;20.40;;;0.70;88.90;;;;;;5035425;28;20211;-26
2024/01/11 08:17:55;;;;;;;35.92;20.23;;;0.70;88.90;;;;;;5037531;28;20192;-26
2024/01/11 08:20:22;;;;;;;30.17;19.53;;;0.70;89.00;;;;;;5037444;28;20207;-26
2024/01/11 08:22:50;;;;;;;36.90;21.05;;;0.70;89.10;;;;;;5051893;28;20442;-26
2024/01/11 08:25:17;;;;;;;32.60;21.40;;;0.70;89.00;;;;;;5035146;28;20177;-26
2024/01/11 08:27:46;;;;;;;35.28;21.33;;;0.70;89.00;;;;;;5037520;28;20719;-26
2024/01/11 08:30:12;;;;;;;38.15;19.30;;;0.70;89.10;;;;;;5036085;28;20259;-27
2024/01/11 08:32:39;;;;;;;32.03;20.30;;;0.70;89.10;;;;;;5037895;28;20597;-26
2024/01/11 08:35:06;;;;;;;32.92;19.67;;;0.70;89.20;;;;;;5035839;28;20234;-27
2024/01/11 08:37:34;;;;;;;34.83;20.75;;;0.70;89.20;;;;;;5036836;28;20199;-27
2024/01/11 08:40:01;;;;;;;37.05;22.15;;;0.60;89.10;;;;;;5037030;28;20202;-26
2024/01/11 08:42:29;;;;;;;33.40;20.33;;;0.60;89.10;;;;;;5042575;28;20208;-28
2024/01/11 08:44:55;;;;;;;38.33;21.70;;;0.60;89.20;;;;;;5043113;28;20552;-26
2024/01/11 08:47:23;;;;;;;39.17;21.97;;;0.60;89.20;;;;;;5041199;28;20208;-26
2024/01/11 08:49:49;;;;;;;31.65;18.58;;;0.60;89.30;;;;;;5042512;28;20993;-27
2024/01/11 08:52:18;;;;;;;35.40;21.25;;;0.60;89.30;;;;;;5040305;28;20252;-27
2024/01/11 08:54:45;;;;;;;37.70;21.63;;;0.60;89.40;;;;;;5042930;28;20215;-26
2024/01/11 08:57:11;;;;;;;36.15;21.27;;;0.60;89.40;;;;;;5042717;28;20445;-27
2024/01/11 08:59:40;;;;;;;39.67;20.90;;;0.60;89.40;;;;;;5033928;28;20200;-27
2024/01/11 09:02:06;;;;;;;39.57;20.80;;;0.60;89.40;;;;;;5039110;28;20827;-26
2024/01/11 09:04:33;;;;;;;37.90;21.52;;;0.70;89.60;;;;;;5040463;28;20450;-27
2024/01/11 09:06:59;;;;;;;33.28;21.40;;;0.60;89.50;;;;;;5039193;28;20204;-26
2024/01/11 09:09:25;;;;;;;31.20;20.40;;;0.70;89.60;;;;;;5042387;28;20204;-27
2024/01/11 09:11:54;;;;;;;36.37;20.07;;;0.70;89.50;;;;;;5041048;28;20891;-27
2024/01/11 09:14:20;;;;;;;34.20;21.05;;;0.70;89.50;;;;;;5023457;28;20492;-26
2024/01/11 09:16:48;;;;;;;35.87;19.73;;;0.60;89.40;;;;;;5041125;28;20316;-26
2024/01/11 09:19:14;;;;;;;32.13;20.45;;;0.60;89.50;;;;;;5039152;28;20527;-27
2024/01/11 09:21:42;;;;;;;29.77;21.07;;;0.70;89.60;;;;;;5040906;28;20546;-26
2024/01/11 09:24:08;;;;;;;33.90;20.50;;;0.60;89.60;;;;;;5024835;28;20446;-27
2024/01/11 09:26:36;;;;;;;33.20;19.73;;;0.70;89.60;;;;;;5039233;28;20707;-27
2024/01/11 09:29:02;;;;;;;31.38;21.83;;;0.70;89.60;;;;;;5022995;28;20212;-27
2024/01/11 09:31:29;;;;;;;35.45;20.50;;;0.60;89.70;;;;;;5038474;28;20596;-26
2024/01/11 09:33:57;;;;;;;40.25;20.50;;;0.60;89.70;;;;;;5039191;28;20799;-26
2024/01/11 09:36:23;;;;;;;34.80;20.55;;;0.70;89.80;;;;;;5040718;28;20693;-27
2024/01/11 09:38:51;;;;;;;38.13;21.15;;;0.70;89.80;;;;;;5040766;28;20206;-26
2024/01/11 09:41:20;;;;;;;38.47;21.38;;;0.70;89.80;;;;;;5040942;28;20204;-25
2024/01/11 09:43:53;;;;;;;35.53;20.70;;;0.70;89.80;;;;;;5039297;28;20798;-25
2024/01/11 09:46:29;;;;;;;39.42;21.30;;;0.70;89.90;;;;;;5040993;28;20222;-28
2024/01/11 09:48:57;;;;;;;30.63;20.52;;;0.70;89.90;;;;;;5043403;28;20223;-28
2024/01/11 09:51:28;;;;;;;43.08;22.63;;;0.70;90.30;;;;;;5040048;28;20254;-26
2024/01/11 09:53:59;;;;;;;35.25;20.67;;;0.70;90.00;;;;;;5041273;28;20181;-36
2024/01/11 09:56:28;;;;;;;36.20;21.02;;;0.70;90.00;;;;;;5068064;22;20700;-83
2024/01/11 09:58:58;;;;;;;32.38;20.60;;;0.70;90.00;;;;;;4998617;28;20525;-82
2024/01/11 10:01:27;;;;;;;34.63;20.50;;;1.20;90.20;;;;;;5018531;28;20192;-83
2024/01/11 10:03:53;;;;;;;35.22;20.42;;;0.70;89.90;;;;;;5028811;28;20271;-83
2024/01/11 10:06:23;;;;;;;33.10;21.58;;;0.70;90.00;;;;;;5018338;28;20223;-85
2024/01/11 10:08:49;;;;;;;36.65;21.17;;;0.70;90.00;;;;;;5034935;28;20197;-83
2024/01/11 10:11:15;;;;;;;35.37;20.77;;;0.70;90.00;;;;;;5036394;28;20285;-83
2024/01/11 10:13:41;;;;;;;37.63;20.50;;;0.70;90.00;;;;;;5016279;28;20807;-85
2024/01/11 10:16:13;;;;;;;38.40;21.63;;;0.70;90.00;;;;;;5014954;28;20467;-83
2024/01/11 10:18:39;;;;;;;36.67;21.65;;;0.70;90.00;;;;;;5028503;28;20420;-82
2024/01/11 10:21:05;;;;;;;37.40;22.67;;;0.70;90.00;;;;;;5032571;28;20837;-85
2024/01/11 10:23:34;;;;;;;37.05;22.23;;;0.70;90.20;;;;;;5032179;28;20856;-84
2024/01/11 10:26:03;;;;;;;33.60;21.63;;;0.70;90.00;;;;;;5015709;28;20284;-84
2024/01/11 10:28:29;;;;;;;36.92;21.73;;;0.70;90.10;;;;;;5017219;28;20201;-84
2024/01/11 10:30:55;;;;;;;33.03;19.65;;;0.70;90.00;;;;;;5016735;28;20196;-85
2024/01/11 10:33:23;;;;;;;34.85;22.13;;;0.70;90.00;;;;;;4999654;28;20198;-83
2024/01/11 10:35:50;;;;;;;31.00;19.17;;;0.70;90.00;;;;;;5014950;28;21623;-84
2024/01/11 10:38:19;;;;;;;39.90;22.00;;;0.70;90.10;;;;;;5015644;28;20199;-84
2024/01/11 10:40:45;;;;;;;33.60;21.77;;;0.80;90.20;;;;;;4999280;28;20208;-85
2024/01/11 10:43:13;;;;;;;32.80;22.25;;;0.70;90.20;;;;;;5032697;28;20330;-84
2024/01/11 10:45:39;;;;;;;39.28;22.52;;;0.70;90.10;;;;;;5015979;28;20296;-84
2024/01/11 10:48:14;;;;;;;37.92;21.83;;;0.80;90.20;;;;;;5029159;28;20555;-85
2024/01/11 10:50:45;;;;;;;41.38;23.92;;;0.80;90.20;;;;;;5015351;28;20193;-85
2024/01/11 10:53:38;;;;;;;36.58;20.90;;;0.80;90.20;;;;;;5010321;28;20204;-83
2024/01/11 10:56:08;;;;;;;38.08;22.00;;;0.80;90.20;;;;;;5033362;28;20985;-83
2024/01/11 10:58:35;;;;;;;34.90;22.33;;;0.80;90.20;;;;;;5005388;28;20189;-80
2024/01/11 11:01:07;;;;;;;36.58;22.27;;;0.80;90.30;;;;;;5007779;28;20227;-84
2024/01/11 11:03:35;;;;;;;34.75;21.13;;;0.80;90.30;;;;;;5029726;28;20228;-84
2024/01/11 11:06:02;;;;;;;33.15;20.48;;;0.80;90.30;;;;;;5034183;28;20201;-86
2024/01/11 11:08:28;;;;;;;38.25;22.65;;;0.80;90.30;;;;;;5027122;28;20205;-85
2024/01/11 11:10:58;;;;;;;40.92;23.35;;;0.80;90.30;;;;;;5010057;28;20346;-85
2024/01/11 11:13:25;;;;;;;34.88;21.00;;;0.80;90.30;;;;;;5027458;28;20197;-85
2024/01/11 11:15:53;;;;;;;35.42;22.17;;;0.80;90.30;;;;;;4999523;28;20308;-85
2024/01/11 11:18:22;;;;;;;38.97;22.88;;;0.80;90.30;;;;;;5022143;28;20213;-86
2024/01/11 11:20:51;;;;;;;36.63;22.85;;;0.80;90.20;;;;;;5019336;28;20189;-85
2024/01/11 11:23:19;;;;;;;32.08;21.77;;;0.90;90.20;;;;;;5016375;28;20251;-84
2024/01/11 11:25:49;;;;;;;38.15;21.50;;;0.90;90.30;;;;;;4999639;28;20197;-85
2024/01/11 11:28:18;;;;;;;40.65;21.55;;;0.90;90.30;;;;;;5012855;28;20229;-81
2024/01/11 11:30:52;;;;;;;35.67;21.85;;;0.90;90.30;;;;;;5007959;28;20204;-85
2024/01/11 11:33:24;;;;;;;37.50;21.30;;;0.90;90.30;;;;;;5030538;28;20196;-82
2024/01/11 11:35:55;;;;;;;34.15;22.05;;;0.90;90.20;;;;;;5030295;28;20235;-83
2024/01/11 11:38:22;;;;;;;35.83;21.00;;;0.90;90.20;;;;;;5014314;28;20638;-83
2024/01/11 11:40:50;;;;;;;36.47;20.33;;;0.90;90.10;;;;;;5012540;28;20273;-82
2024/01/11 11:43:19;;;;;;;40.70;24.40;;;0.90;90.20;;;;;;5020397;28;20213;-83
2024/01/11 11:45:52;;;;;;;38.15;22.75;;;0.90;90.20;;;;;;5003847;28;20204;-82
2024/01/11 11:48:36;;;;;;;41.10;21.88;;;1.00;90.20;;;;;;5037006;28;20224;-83
2024/01/11 11:51:09;;;;;;;32.05;20.27;;;1.00;90.20;;;;;;5019859;28;20287;-82
2024/01/11 11:53:38;;;;;;;36.28;21.67;;;1.00;90.20;;;;;;5037034;28;20188;-83
2024/01/11 11:56:09;;;;;;;38.13;21.98;;;1.00;90.20;;;;;;5017680;28;20209;-83
2024/01/11 11:58:42;;;;;;;38.88;21.75;;;1.00;90.20;;;;;;5017188;28;20229;-83
2024/01/11 12:01:09;;;;;;;35.13;21.30;;;1.00;90.20;;;;;;5012604;28;20267;-81
2024/01/11 12:03:39;;;;;;;34.45;20.15;;;1.00;90.10;;;;;;5028660;28;20205;-83
2024/01/11 12:06:08;;;;;;;30.67;21.58;;;1.00;90.10;;;;;;5016549;28;20197;-84
2024/01/11 12:08:35;;;;;;;33.75;20.55;;;1.00;90.10;;;;;;5014532;28;20224;-83
2024/01/11 12:11:01;;;;;;;30.38;19.77;;;1.00;90.10;;;;;;4996069;28;20912;-86
2024/01/11 12:13:27;;;;;;;34.13;20.00;;;1.00;90.00;;;;;;4996891;28;20203;-84
2024/01/11 12:15:53;;;;;;;32.13;20.20;;;1.10;90.00;;;;;;5014415;28;20304;-84
2024/01/11 12:18:19;;;;;;;35.72;22.45;;;1.10;90.20;;;;;;4998141;28;20416;-84
2024/01/11 12:21:12;;;;;;;29.57;19.67;;;1.00;90.10;;;;;;5029569;28;20213;-84
2024/01/11 12:23:41;;;;;;;31.63;19.25;;;1.80;90.50;;;;;;5000202;28;20985;-83
2024/01/11 12:26:12;;;;;;;34.88;20.65;;;1.10;90.00;;;;;;5006941;28;20236;-84
2024/01/11 12:28:40;;;;;;;30.48;20.10;;;1.10;90.10;;;;;;4997299;28;20549;-84
2024/01/11 12:31:06;;;;;;;34.15;21.10;;;1.00;90.00;;;;;;5014149;28;20196;-83
2024/01/11 12:33:37;;;;;;;32.63;19.48;;;1.10;90.00;;;;;;5013376;28;20782;-83
2024/01/11 12:36:07;;;;;;;33.60;19.65;;;1.20;90.10;;;;;;5020664;28;20251;-82
2024/01/11 12:38:34;;;;;;;32.83;20.23;;;1.10;90.10;;;;;;5005081;28;20193;-83
2024/01/11 12:41:02;;;;;;;34.35;20.45;;;1.10;90.00;;;;;;5019341;28;20304;-83